sensor_id;sensor_type;location;lat;lon;timestamp;P1;durP1;ratioP1;P2;durP2;ratioP2
69625;SDS011;56847;51.984;5.088;2022-10-16T05:02:28;9.55;;;2.85;;
69625;SDS011;56847;51.984;5.088;2022-10-16T05:04:55;8.10;;;2.53;;
69625;SDS011;56847;51.984;5.088;2022-10-16T05:07:22;5.13;;;2.45;;
69625;SDS011;56847;51.984;5.088;2022-10-16T05:09:50;5.18;;;3.05;;
69625;SDS011;56847;51.984;5.088;2022-10-16T05:12:17;6.28;;;2.85;;
69625;SDS011;56847;51.984;5.088;2022-10-16T05:14:44;5.03;;;3.38;;
69625;SDS011;56847;51.984;5.088;2022-10-16T05:17:11;4.20;;;2.73;;
69625;SDS011;56847;51.984;5.088;2022-10-16T05:19:42;6.43;;;3.20;;
69625;SDS011;56847;51.984;5.088;2022-10-16T05:22:09;5.70;;;3.45;;
69625;SDS011;56847;51.984;5.088;2022-10-16T05:24:36;5.90;;;3.10;;
69625;SDS011;56847;51.984;5.088;2022-10-16T05:27:03;8.10;;;3.15;;
69625;SDS011;56847;51.984;5.088;2022-10-16T05:29:30;6.73;;;3.00;;
69625;SDS011;56847;51.984;5.088;2022-10-16T05:31:58;5.07;;;2.80;;
69625;SDS011;56847;51.984;5.088;2022-10-16T05:34:25;7.13;;;3.53;;
69625;SDS011;56847;51.984;5.088;2022-10-16T05:36:52;9.63;;;2.80;;
69625;SDS011;56847;51.984;5.088;2022-10-16T05:39:19;8.25;;;3.95;;
69625;SDS011;56847;51.984;5.088;2022-10-16T05:41:46;5.13;;;2.83;;
69625;SDS011;56847;51.984;5.088;2022-10-16T05:44:12;4.70;;;3.40;;
69625;SDS011;56847;51.984;5.088;2022-10-16T05:46:39;11.73;;;3.28;;
69625;SDS011;56847;51.984;5.088;2022-10-16T05:49:06;7.30;;;2.90;;
69625;SDS011;56847;51.984;5.088;2022-10-16T05:51:36;9.48;;;2.88;;
69625;SDS011;56847;51.984;5.088;2022-10-16T05:54:03;7.87;;;2.90;;
69625;SDS011;56847;51.984;5.088;2022-10-16T05:56:30;2.88;;;2.42;;
69625;SDS011;56847;51.984;5.088;2022-10-16T05:58:57;6.07;;;3.22;;
69625;SDS011;56847;51.984;5.088;2022-10-16T06:01:24;6.78;;;3.30;;
69625;SDS011;56847;51.984;5.088;2022-10-16T06:03:51;4.60;;;3.20;;
69625;SDS011;56847;51.984;5.088;2022-10-16T06:06:23;5.13;;;3.43;;
69625;SDS011;56847;51.984;5.088;2022-10-16T06:08:55;10.55;;;3.50;;
69625;SDS011;56847;51.984;5.088;2022-10-16T06:11:26;6.85;;;3.60;;
69625;SDS011;56847;51.984;5.088;2022-10-16T06:13:56;4.78;;;3.05;;
69625;SDS011;56847;51.984;5.088;2022-10-16T06:16:29;5.18;;;2.95;;
69625;SDS011;56847;51.984;5.088;2022-10-16T06:18:56;6.13;;;2.80;;
69625;SDS011;56847;51.984;5.088;2022-10-16T06:21:25;14.40;;;3.15;;
69625;SDS011;56847;51.984;5.088;2022-10-16T06:23:53;6.25;;;3.15;;
69625;SDS011;56847;51.984;5.088;2022-10-16T06:26:22;7.45;;;3.03;;
69625;SDS011;56847;51.984;5.088;2022-10-16T06:28:50;10.32;;;2.80;;
69625;SDS011;56847;51.984;5.088;2022-10-16T06:31:17;5.60;;;3.00;;
69625;SDS011;56847;51.984;5.088;2022-10-16T06:33:44;7.13;;;3.13;;
69625;SDS011;56847;51.984;5.088;2022-10-16T06:36:15;7.18;;;3.50;;
69625;SDS011;56847;51.984;5.088;2022-10-16T06:38:43;7.97;;;2.75;;
69625;SDS011;56847;51.984;5.088;2022-10-16T06:41:13;6.03;;;3.13;;
69625;SDS011;56847;51.984;5.088;2022-10-16T06:43:42;4.83;;;3.07;;
69625;SDS011;56847;51.984;5.088;2022-10-16T06:46:11;8.20;;;3.00;;
69625;SDS011;56847;51.984;5.088;2022-10-16T06:48:39;9.07;;;3.20;;
69625;SDS011;56847;51.984;5.088;2022-10-16T06:51:11;4.43;;;3.08;;
69625;SDS011;56847;51.984;5.088;2022-10-16T06:53:41;6.38;;;3.40;;
69625;SDS011;56847;51.984;5.088;2022-10-16T06:56:28;8.97;;;3.17;;
69625;SDS011;56847;51.984;5.088;2022-10-16T06:58:57;8.77;;;3.25;;
69625;SDS011;56847;51.984;5.088;2022-10-16T07:01:25;7.90;;;2.92;;
69625;SDS011;56847;51.984;5.088;2022-10-16T07:03:53;4.68;;;2.80;;
69625;SDS011;56847;51.984;5.088;2022-10-16T07:06:22;6.50;;;2.97;;
69625;SDS011;56847;51.984;5.088;2022-10-16T07:08:50;5.00;;;2.30;;
69625;SDS011;56847;51.984;5.088;2022-10-16T07:11:19;6.78;;;3.17;;
69625;SDS011;56847;51.984;5.088;2022-10-16T07:13:48;8.88;;;3.72;;
69625;SDS011;56847;51.984;5.088;2022-10-16T07:16:25;9.80;;;3.78;;
69625;SDS011;56847;51.984;5.088;2022-10-16T07:18:57;7.57;;;3.83;;
69625;SDS011;56847;51.984;5.088;2022-10-16T07:21:30;9.03;;;3.47;;
69625;SDS011;56847;51.984;5.088;2022-10-16T07:24:02;6.65;;;3.30;;
69625;SDS011;56847;51.984;5.088;2022-10-16T07:26:34;7.15;;;3.55;;
69625;SDS011;56847;51.984;5.088;2022-10-16T07:29:02;6.13;;;3.38;;
69625;SDS011;56847;51.984;5.088;2022-10-16T07:31:30;5.68;;;3.55;;
69625;SDS011;56847;51.984;5.088;2022-10-16T07:33:58;17.03;;;3.17;;
69625;SDS011;56847;51.984;5.088;2022-10-16T07:36:26;14.00;;;3.72;;
69625;SDS011;56847;51.984;5.088;2022-10-16T07:38:53;8.43;;;4.20;;
69625;SDS011;56847;51.984;5.088;2022-10-16T07:41:25;8.75;;;3.90;;
69625;SDS011;56847;51.984;5.088;2022-10-16T07:43:53;6.05;;;3.10;;
69625;SDS011;56847;51.984;5.088;2022-10-16T07:46:21;5.97;;;3.13;;
69625;SDS011;56847;51.984;5.088;2022-10-16T07:48:48;5.97;;;3.10;;
69625;SDS011;56847;51.984;5.088;2022-10-16T07:51:16;8.40;;;3.67;;
69625;SDS011;56847;51.984;5.088;2022-10-16T07:53:48;6.72;;;3.28;;
69625;SDS011;56847;51.984;5.088;2022-10-16T07:56:16;10.75;;;3.25;;
69625;SDS011;56847;51.984;5.088;2022-10-16T07:58:44;10.37;;;3.20;;
69625;SDS011;56847;51.984;5.088;2022-10-16T08:01:12;5.35;;;2.90;;
69625;SDS011;56847;51.984;5.088;2022-10-16T08:03:41;7.65;;;3.65;;
69625;SDS011;56847;51.984;5.088;2022-10-16T08:06:09;11.60;;;2.70;;
69625;SDS011;56847;51.984;5.088;2022-10-16T08:08:37;5.22;;;3.35;;
69625;SDS011;56847;51.984;5.088;2022-10-16T08:11:07;9.77;;;3.90;;
69625;SDS011;56847;51.984;5.088;2022-10-16T08:13:34;6.32;;;2.75;;
69625;SDS011;56847;51.984;5.088;2022-10-16T08:16:01;10.57;;;3.42;;
69625;SDS011;56847;51.984;5.088;2022-10-16T08:18:37;9.25;;;3.50;;
69625;SDS011;56847;51.984;5.088;2022-10-16T08:21:06;13.85;;;3.42;;
69625;SDS011;56847;51.984;5.088;2022-10-16T08:23:34;7.70;;;2.53;;
69625;SDS011;56847;51.984;5.088;2022-10-16T08:26:02;9.02;;;3.30;;
69625;SDS011;56847;51.984;5.088;2022-10-16T08:28:31;9.68;;;2.63;;
69625;SDS011;56847;51.984;5.088;2022-10-16T08:31:12;4.20;;;2.80;;
69625;SDS011;56847;51.984;5.088;2022-10-16T08:33:41;9.68;;;3.05;;
69625;SDS011;56847;51.984;5.088;2022-10-16T08:36:13;6.70;;;2.47;;
69625;SDS011;56847;51.984;5.088;2022-10-16T08:38:41;9.20;;;2.95;;
69625;SDS011;56847;51.984;5.088;2022-10-16T08:44:11;6.82;;;2.35;;
69625;SDS011;56847;51.984;5.088;2022-10-16T08:49:33;5.53;;;2.30;;
69625;SDS011;56847;51.984;5.088;2022-10-16T08:52:01;7.78;;;2.60;;
69625;SDS011;56847;51.984;5.088;2022-10-16T08:54:36;8.02;;;3.47;;
69625;SDS011;56847;51.984;5.088;2022-10-16T08:57:09;9.82;;;2.78;;
69625;SDS011;56847;51.984;5.088;2022-10-16T08:59:46;10.95;;;2.92;;
69625;SDS011;56847;51.984;5.088;2022-10-16T09:04:54;12.48;;;2.55;;
69625;SDS011;56847;51.984;5.088;2022-10-16T09:13:23;6.80;;;2.35;;
69625;SDS011;56847;51.984;5.088;2022-10-16T09:16:21;8.57;;;2.60;;
69625;SDS011;56847;51.984;5.088;2022-10-16T09:19:16;6.57;;;2.88;;
69625;SDS011;56847;51.984;5.088;2022-10-16T09:21:59;8.32;;;3.08;;
69625;SDS011;56847;51.984;5.088;2022-10-16T09:24:29;9.93;;;2.53;;
69625;SDS011;56847;51.984;5.088;2022-10-16T09:26:56;9.80;;;2.80;;
69625;SDS011;56847;51.984;5.088;2022-10-16T09:29:26;10.23;;;2.60;;
69625;SDS011;56847;51.984;5.088;2022-10-16T09:31:53;8.50;;;2.35;;
69625;SDS011;56847;51.984;5.088;2022-10-16T09:34:29;10.68;;;2.90;;
69625;SDS011;56847;51.984;5.088;2022-10-16T09:36:59;9.70;;;2.33;;
69625;SDS011;56847;51.984;5.088;2022-10-16T09:39:29;10.07;;;2.67;;
69625;SDS011;56847;51.984;5.088;2022-10-16T09:41:56;5.07;;;1.90;;
69625;SDS011;56847;51.984;5.088;2022-10-16T09:44:27;8.10;;;2.60;;
69625;SDS011;56847;51.984;5.088;2022-10-16T09:47:03;10.65;;;3.03;;
69625;SDS011;56847;51.984;5.088;2022-10-16T09:49:31;10.45;;;2.60;;
69625;SDS011;56847;51.984;5.088;2022-10-16T09:52:05;13.00;;;2.95;;
69625;SDS011;56847;51.984;5.088;2022-10-16T09:54:48;21.30;;;3.00;;
69625;SDS011;56847;51.984;5.088;2022-10-16T09:57:16;12.27;;;2.47;;
69625;SDS011;56847;51.984;5.088;2022-10-16T09:59:52;12.90;;;2.38;;
69625;SDS011;56847;51.984;5.088;2022-10-16T10:02:34;13.75;;;2.85;;
69625;SDS011;56847;51.984;5.088;2022-10-16T10:05:04;10.43;;;2.45;;
69625;SDS011;56847;51.984;5.088;2022-10-16T10:07:43;14.30;;;2.80;;
69625;SDS011;56847;51.984;5.088;2022-10-16T10:10:48;10.63;;;2.20;;
69625;SDS011;56847;51.984;5.088;2022-10-16T10:13:19;19.20;;;3.10;;
69625;SDS011;56847;51.984;5.088;2022-10-16T10:15:49;15.30;;;2.45;;
69625;SDS011;56847;51.984;5.088;2022-10-16T10:18:18;17.85;;;2.78;;
69625;SDS011;56847;51.984;5.088;2022-10-16T10:21:00;6.97;;;2.20;;
69625;SDS011;56847;51.984;5.088;2022-10-16T10:23:30;14.65;;;2.78;;
69625;SDS011;56847;51.984;5.088;2022-10-16T10:26:06;19.92;;;2.95;;
69625;SDS011;56847;51.984;5.088;2022-10-16T10:34:32;11.57;;;2.73;;
69625;SDS011;56847;51.984;5.088;2022-10-16T10:37:20;8.63;;;2.30;;
69625;SDS011;56847;51.984;5.088;2022-10-16T10:45:44;13.48;;;2.28;;
69625;SDS011;56847;51.984;5.088;2022-10-16T10:50:56;13.68;;;3.05;;
69625;SDS011;56847;51.984;5.088;2022-10-16T11:08:02;10.38;;;2.10;;
69625;SDS011;56847;51.984;5.088;2022-10-16T11:10:31;18.00;;;3.15;;
69625;SDS011;56847;51.984;5.088;2022-10-16T11:16:00;11.10;;;2.33;;
69625;SDS011;56847;51.984;5.088;2022-10-16T11:18:40;12.57;;;2.72;;
69625;SDS011;56847;51.984;5.088;2022-10-16T11:21:22;17.05;;;2.20;;
69625;SDS011;56847;51.984;5.088;2022-10-16T11:24:30;16.90;;;2.88;;
69625;SDS011;56847;51.984;5.088;2022-10-16T11:26:56;11.23;;;3.15;;
69625;SDS011;56847;51.984;5.088;2022-10-16T11:29:30;12.97;;;2.03;;
69625;SDS011;56847;51.984;5.088;2022-10-16T11:32:00;12.10;;;2.35;;
69625;SDS011;56847;51.984;5.088;2022-10-16T11:34:39;14.68;;;2.38;;
69625;SDS011;56847;51.984;5.088;2022-10-16T11:37:12;12.05;;;2.30;;
69625;SDS011;56847;51.984;5.088;2022-10-16T11:39:44;12.00;;;2.20;;
69625;SDS011;56847;51.984;5.088;2022-10-16T11:42:16;11.37;;;2.10;;
69625;SDS011;56847;51.984;5.088;2022-10-16T11:45:02;10.13;;;2.25;;
69625;SDS011;56847;51.984;5.088;2022-10-16T11:50:52;15.45;;;2.20;;
69625;SDS011;56847;51.984;5.088;2022-10-16T11:56:19;10.00;;;2.13;;
69625;SDS011;56847;51.984;5.088;2022-10-16T11:58:51;10.20;;;1.75;;
69625;SDS011;56847;51.984;5.088;2022-10-16T12:01:33;11.07;;;2.63;;
69625;SDS011;56847;51.984;5.088;2022-10-16T12:04:26;25.30;;;3.38;;
69625;SDS011;56847;51.984;5.088;2022-10-16T12:07:10;7.93;;;2.15;;
69625;SDS011;56847;51.984;5.088;2022-10-16T12:09:40;10.97;;;1.93;;
69625;SDS011;56847;51.984;5.088;2022-10-16T12:12:24;13.13;;;2.20;;
69625;SDS011;56847;51.984;5.088;2022-10-16T12:15:32;10.88;;;2.55;;
69625;SDS011;56847;51.984;5.088;2022-10-16T12:18:20;12.48;;;2.70;;
69625;SDS011;56847;51.984;5.088;2022-10-16T12:20:55;12.55;;;2.40;;
69625;SDS011;56847;51.984;5.088;2022-10-16T12:23:32;11.00;;;2.37;;
69625;SDS011;56847;51.984;5.088;2022-10-16T12:26:03;13.77;;;2.15;;
69625;SDS011;56847;51.984;5.088;2022-10-16T12:28:31;12.52;;;2.55;;
69625;SDS011;56847;51.984;5.088;2022-10-16T12:31:01;10.32;;;2.35;;
69625;SDS011;56847;51.984;5.088;2022-10-16T12:33:30;16.92;;;2.30;;
69625;SDS011;56847;51.984;5.088;2022-10-16T12:36:03;8.57;;;2.37;;
69625;SDS011;56847;51.984;5.088;2022-10-16T12:38:37;13.25;;;2.03;;
69625;SDS011;56847;51.984;5.088;2022-10-16T12:41:12;7.90;;;2.40;;
69625;SDS011;56847;51.984;5.088;2022-10-16T12:43:55;9.50;;;1.98;;
69625;SDS011;56847;51.984;5.088;2022-10-16T12:46:23;10.60;;;2.33;;
69625;SDS011;56847;51.984;5.088;2022-10-16T12:49:21;13.07;;;2.20;;
69625;SDS011;56847;51.984;5.088;2022-10-16T12:51:55;9.52;;;2.58;;
69625;SDS011;56847;51.984;5.088;2022-10-16T12:54:36;14.32;;;2.60;;
69625;SDS011;56847;51.984;5.088;2022-10-16T13:08:21;11.13;;;2.55;;
69625;SDS011;56847;51.984;5.088;2022-10-16T13:11:04;10.40;;;2.38;;
69625;SDS011;56847;51.984;5.088;2022-10-16T13:22:04;8.20;;;1.92;;
69625;SDS011;56847;51.984;5.088;2022-10-16T13:24:42;10.77;;;2.38;;
69625;SDS011;56847;51.984;5.088;2022-10-16T13:27:18;16.23;;;2.35;;
69625;SDS011;56847;51.984;5.088;2022-10-16T13:30:12;14.60;;;2.10;;
69625;SDS011;56847;51.984;5.088;2022-10-16T13:32:48;9.80;;;2.25;;
69625;SDS011;56847;51.984;5.088;2022-10-16T13:35:22;22.50;;;2.70;;
69625;SDS011;56847;51.984;5.088;2022-10-16T13:38:02;10.23;;;2.67;;
69625;SDS011;56847;51.984;5.088;2022-10-16T13:40:49;11.95;;;3.08;;
69625;SDS011;56847;51.984;5.088;2022-10-16T13:46:13;10.57;;;2.70;;
69625;SDS011;56847;51.984;5.088;2022-10-16T13:48:40;12.52;;;2.83;;
69625;SDS011;56847;51.984;5.088;2022-10-16T13:51:15;14.93;;;2.63;;
69625;SDS011;56847;51.984;5.088;2022-10-16T13:53:44;12.27;;;2.85;;
69625;SDS011;56847;51.984;5.088;2022-10-16T13:56:16;11.97;;;2.73;;
69625;SDS011;56847;51.984;5.088;2022-10-16T13:58:59;14.10;;;2.50;;
69625;SDS011;56847;51.984;5.088;2022-10-16T14:01:35;16.33;;;2.80;;
69625;SDS011;56847;51.984;5.088;2022-10-16T14:04:11;11.57;;;2.65;;
69625;SDS011;56847;51.984;5.088;2022-10-16T14:06:40;12.65;;;3.00;;
69625;SDS011;56847;51.984;5.088;2022-10-16T14:12:01;15.07;;;3.38;;
69625;SDS011;56847;51.984;5.088;2022-10-16T14:14:35;14.95;;;2.38;;
69625;SDS011;56847;51.984;5.088;2022-10-16T14:17:18;13.80;;;2.88;;
69625;SDS011;56847;51.984;5.088;2022-10-16T14:20:06;9.68;;;2.50;;
69625;SDS011;56847;51.984;5.088;2022-10-16T14:22:45;14.50;;;2.57;;
69625;SDS011;56847;51.984;5.088;2022-10-16T14:25:25;10.65;;;2.20;;
69625;SDS011;56847;51.984;5.088;2022-10-16T14:28:01;13.13;;;2.70;;
69625;SDS011;56847;51.984;5.088;2022-10-16T14:30:49;10.82;;;3.75;;
69625;SDS011;56847;51.984;5.088;2022-10-16T14:33:23;16.70;;;4.25;;
69625;SDS011;56847;51.984;5.088;2022-10-16T14:35:59;16.93;;;4.07;;
69625;SDS011;56847;51.984;5.088;2022-10-16T14:38:30;12.20;;;2.40;;
69625;SDS011;56847;51.984;5.088;2022-10-16T14:40:58;12.90;;;2.88;;
69625;SDS011;56847;51.984;5.088;2022-10-16T14:43:33;13.73;;;2.85;;
69625;SDS011;56847;51.984;5.088;2022-10-16T14:46:12;16.05;;;3.58;;
69625;SDS011;56847;51.984;5.088;2022-10-16T14:48:50;11.37;;;2.83;;
69625;SDS011;56847;51.984;5.088;2022-10-16T14:51:19;13.40;;;2.85;;
69625;SDS011;56847;51.984;5.088;2022-10-16T14:53:47;20.80;;;4.00;;
69625;SDS011;56847;51.984;5.088;2022-10-16T14:56:21;16.92;;;2.83;;
69625;SDS011;56847;51.984;5.088;2022-10-16T14:58:52;18.05;;;2.88;;
69625;SDS011;56847;51.984;5.088;2022-10-16T15:01:22;13.27;;;2.50;;
69625;SDS011;56847;51.984;5.088;2022-10-16T15:03:49;17.17;;;2.80;;
69625;SDS011;56847;51.984;5.088;2022-10-16T15:06:18;14.05;;;2.58;;
69625;SDS011;56847;51.984;5.088;2022-10-16T15:08:45;16.63;;;3.35;;
69625;SDS011;56847;51.984;5.088;2022-10-16T15:11:14;10.82;;;2.63;;
69625;SDS011;56847;51.984;5.088;2022-10-16T15:13:48;12.13;;;2.43;;
69625;SDS011;56847;51.984;5.088;2022-10-16T15:16:15;14.27;;;2.58;;
69625;SDS011;56847;51.984;5.088;2022-10-16T15:18:43;18.17;;;3.10;;
69625;SDS011;56847;51.984;5.088;2022-10-16T15:21:20;18.65;;;3.25;;
69625;SDS011;56847;51.984;5.088;2022-10-16T15:23:52;13.30;;;2.42;;
69625;SDS011;56847;51.984;5.088;2022-10-16T15:26:19;13.30;;;2.80;;
69625;SDS011;56847;51.984;5.088;2022-10-16T15:28:48;14.80;;;2.65;;
69625;SDS011;56847;51.984;5.088;2022-10-16T15:31:16;13.38;;;2.53;;
69625;SDS011;56847;51.984;5.088;2022-10-16T15:33:43;11.25;;;2.38;;
69625;SDS011;56847;51.984;5.088;2022-10-16T15:36:14;9.88;;;3.38;;
69625;SDS011;56847;51.984;5.088;2022-10-16T15:38:50;11.40;;;2.97;;
69625;SDS011;56847;51.984;5.088;2022-10-16T15:41:17;23.00;;;3.15;;
69625;SDS011;56847;51.984;5.088;2022-10-16T15:43:48;14.98;;;3.45;;
69625;SDS011;56847;51.984;5.088;2022-10-16T15:46:20;13.80;;;3.10;;
69625;SDS011;56847;51.984;5.088;2022-10-16T15:48:50;15.32;;;3.63;;
69625;SDS011;56847;51.984;5.088;2022-10-16T15:51:22;23.60;;;3.43;;
69625;SDS011;56847;51.984;5.088;2022-10-16T15:53:56;14.95;;;3.30;;
69625;SDS011;56847;51.984;5.088;2022-10-16T15:56:23;12.65;;;4.07;;
69625;SDS011;56847;51.984;5.088;2022-10-16T15:58:57;12.70;;;3.03;;
69625;SDS011;56847;51.984;5.088;2022-10-16T16:01:26;14.90;;;3.28;;
69625;SDS011;56847;51.984;5.088;2022-10-16T16:03:53;13.10;;;3.00;;
69625;SDS011;56847;51.984;5.088;2022-10-16T16:06:25;21.60;;;3.17;;
69625;SDS011;56847;51.984;5.088;2022-10-16T16:08:52;14.63;;;3.25;;
69625;SDS011;56847;51.984;5.088;2022-10-16T16:11:20;19.20;;;3.75;;
69625;SDS011;56847;51.984;5.088;2022-10-16T16:13:49;20.42;;;3.78;;
69625;SDS011;56847;51.984;5.088;2022-10-16T16:16:16;20.17;;;3.93;;
69625;SDS011;56847;51.984;5.088;2022-10-16T16:18:44;15.88;;;3.38;;
69625;SDS011;56847;51.984;5.088;2022-10-16T16:21:13;12.15;;;4.32;;
69625;SDS011;56847;51.984;5.088;2022-10-16T16:23:41;21.08;;;3.50;;
69625;SDS011;56847;51.984;5.088;2022-10-16T16:26:12;23.67;;;4.10;;
69625;SDS011;56847;51.984;5.088;2022-10-16T16:28:44;25.73;;;3.33;;
69625;SDS011;56847;51.984;5.088;2022-10-16T16:31:11;20.30;;;3.53;;
69625;SDS011;56847;51.984;5.088;2022-10-16T16:33:38;17.95;;;4.10;;
69625;SDS011;56847;51.984;5.088;2022-10-16T16:36:05;19.58;;;2.88;;
69625;SDS011;56847;51.984;5.088;2022-10-16T16:38:39;11.60;;;3.08;;
69625;SDS011;56847;51.984;5.088;2022-10-16T16:41:12;17.40;;;3.00;;
69625;SDS011;56847;51.984;5.088;2022-10-16T16:43:41;16.20;;;3.38;;
69625;SDS011;56847;51.984;5.088;2022-10-16T16:46:13;27.60;;;4.35;;
69625;SDS011;56847;51.984;5.088;2022-10-16T16:48:44;17.85;;;3.53;;
69625;SDS011;56847;51.984;5.088;2022-10-16T16:51:13;17.90;;;3.20;;
69625;SDS011;56847;51.984;5.088;2022-10-16T16:53:44;14.40;;;3.43;;
69625;SDS011;56847;51.984;5.088;2022-10-16T16:56:13;18.75;;;3.47;;
69625;SDS011;56847;51.984;5.088;2022-10-16T16:58:41;18.05;;;3.70;;
69625;SDS011;56847;51.984;5.088;2022-10-16T17:01:34;16.65;;;3.22;;
69625;SDS011;56847;51.984;5.088;2022-10-16T17:04:05;12.52;;;3.42;;
69625;SDS011;56847;51.984;5.088;2022-10-16T17:06:37;14.80;;;3.63;;
69625;SDS011;56847;51.984;5.088;2022-10-16T17:09:05;17.15;;;3.72;;
69625;SDS011;56847;51.984;5.088;2022-10-16T17:11:45;24.08;;;4.35;;
69625;SDS011;56847;51.984;5.088;2022-10-16T17:14:27;16.70;;;4.20;;
69625;SDS011;56847;51.984;5.088;2022-10-16T17:17:17;19.52;;;4.20;;
69625;SDS011;56847;51.984;5.088;2022-10-16T17:19:55;13.63;;;2.87;;
69625;SDS011;56847;51.984;5.088;2022-10-16T17:22:23;15.43;;;4.07;;
69625;SDS011;56847;51.984;5.088;2022-10-16T17:24:50;14.52;;;4.43;;
69625;SDS011;56847;51.984;5.088;2022-10-16T17:30:56;21.73;;;4.38;;
69625;SDS011;56847;51.984;5.088;2022-10-16T17:33:48;23.70;;;4.43;;
69625;SDS011;56847;51.984;5.088;2022-10-16T17:36:24;14.38;;;3.67;;
69625;SDS011;56847;51.984;5.088;2022-10-16T17:39:06;14.43;;;4.35;;
69625;SDS011;56847;51.984;5.088;2022-10-16T17:41:36;12.60;;;4.55;;
69625;SDS011;56847;51.984;5.088;2022-10-16T17:44:31;20.67;;;4.68;;
69625;SDS011;56847;51.984;5.088;2022-10-16T17:47:01;13.97;;;3.83;;
69625;SDS011;56847;51.984;5.088;2022-10-16T17:49:34;15.73;;;4.68;;
69625;SDS011;56847;51.984;5.088;2022-10-16T17:52:05;14.52;;;4.55;;
69625;SDS011;56847;51.984;5.088;2022-10-16T17:54:33;12.65;;;3.80;;
69625;SDS011;56847;51.984;5.088;2022-10-16T17:57:00;20.17;;;4.63;;
69625;SDS011;56847;51.984;5.088;2022-10-16T17:59:27;14.23;;;3.50;;
69625;SDS011;56847;51.984;5.088;2022-10-16T18:01:55;24.25;;;4.32;;
69625;SDS011;56847;51.984;5.088;2022-10-16T18:04:24;16.50;;;5.43;;
69625;SDS011;56847;51.984;5.088;2022-10-16T18:06:52;18.45;;;4.57;;
69625;SDS011;56847;51.984;5.088;2022-10-16T18:09:23;15.95;;;4.55;;
69625;SDS011;56847;51.984;5.088;2022-10-16T18:12:18;20.63;;;5.20;;
69625;SDS011;56847;51.984;5.088;2022-10-16T18:14:46;17.08;;;4.70;;
69625;SDS011;56847;51.984;5.088;2022-10-16T18:17:22;19.92;;;4.38;;
69625;SDS011;56847;51.984;5.088;2022-10-16T18:19:49;21.25;;;4.80;;
69625;SDS011;56847;51.984;5.088;2022-10-16T18:22:17;15.05;;;4.38;;
69625;SDS011;56847;51.984;5.088;2022-10-16T18:24:44;23.83;;;4.20;;
69625;SDS011;56847;51.984;5.088;2022-10-16T18:27:11;11.65;;;3.67;;
69625;SDS011;56847;51.984;5.088;2022-10-16T18:29:39;17.90;;;4.43;;
69625;SDS011;56847;51.984;5.088;2022-10-16T18:32:10;16.42;;;4.47;;
69625;SDS011;56847;51.984;5.088;2022-10-16T18:34:37;15.77;;;4.45;;
69625;SDS011;56847;51.984;5.088;2022-10-16T18:37:07;19.40;;;4.63;;
69625;SDS011;56847;51.984;5.088;2022-10-16T18:39:38;23.42;;;4.43;;
69625;SDS011;56847;51.984;5.088;2022-10-16T18:42:05;14.35;;;5.00;;
69625;SDS011;56847;51.984;5.088;2022-10-16T18:44:37;17.08;;;4.93;;
69625;SDS011;56847;51.984;5.088;2022-10-16T18:47:04;18.95;;;4.97;;
69625;SDS011;56847;51.984;5.088;2022-10-16T18:49:31;18.47;;;5.13;;
69625;SDS011;56847;51.984;5.088;2022-10-16T18:52:01;19.52;;;4.78;;
69625;SDS011;56847;51.984;5.088;2022-10-16T18:54:30;17.52;;;5.10;;
69625;SDS011;56847;51.984;5.088;2022-10-16T18:56:57;13.55;;;4.38;;
69625;SDS011;56847;51.984;5.088;2022-10-16T18:59:24;16.75;;;5.28;;
69625;SDS011;56847;51.984;5.088;2022-10-16T19:01:55;21.80;;;5.23;;
69625;SDS011;56847;51.984;5.088;2022-10-16T19:04:23;21.63;;;5.10;;
69625;SDS011;56847;51.984;5.088;2022-10-16T19:06:52;24.55;;;5.95;;
69625;SDS011;56847;51.984;5.088;2022-10-16T19:09:21;20.65;;;5.03;;
69625;SDS011;56847;51.984;5.088;2022-10-16T19:11:49;19.73;;;5.15;;
69625;SDS011;56847;51.984;5.088;2022-10-16T19:14:17;18.33;;;4.60;;
69625;SDS011;56847;51.984;5.088;2022-10-16T19:16:47;19.65;;;4.93;;
69625;SDS011;56847;51.984;5.088;2022-10-16T19:19:18;23.08;;;6.90;;
69625;SDS011;56847;51.984;5.088;2022-10-16T19:22:04;15.38;;;5.38;;
69625;SDS011;56847;51.984;5.088;2022-10-16T19:24:57;19.23;;;5.95;;
69625;SDS011;56847;51.984;5.088;2022-10-16T19:27:29;17.30;;;5.33;;
69625;SDS011;56847;51.984;5.088;2022-10-16T19:30:06;17.42;;;6.15;;
69625;SDS011;56847;51.984;5.088;2022-10-16T19:32:34;20.77;;;6.28;;
69625;SDS011;56847;51.984;5.088;2022-10-16T19:35:07;22.20;;;6.40;;
69625;SDS011;56847;51.984;5.088;2022-10-16T19:37:38;22.45;;;6.70;;
69625;SDS011;56847;51.984;5.088;2022-10-16T19:40:14;17.07;;;5.10;;
69625;SDS011;56847;51.984;5.088;2022-10-16T19:42:48;13.73;;;6.03;;
69625;SDS011;56847;51.984;5.088;2022-10-16T19:45:20;14.73;;;6.00;;
69625;SDS011;56847;51.984;5.088;2022-10-16T19:47:51;17.33;;;6.18;;
69625;SDS011;56847;51.984;5.088;2022-10-16T19:50:21;18.20;;;7.20;;
69625;SDS011;56847;51.984;5.088;2022-10-16T19:52:56;23.70;;;6.37;;
69625;SDS011;56847;51.984;5.088;2022-10-16T19:55:29;21.13;;;7.32;;
69625;SDS011;56847;51.984;5.088;2022-10-16T19:58:06;18.67;;;6.50;;
69625;SDS011;56847;51.984;5.088;2022-10-16T20:00:39;19.70;;;7.13;;
69625;SDS011;56847;51.984;5.088;2022-10-16T20:03:09;19.20;;;7.72;;
69625;SDS011;56847;51.984;5.088;2022-10-16T20:05:39;23.33;;;6.73;;
69625;SDS011;56847;51.984;5.088;2022-10-16T20:08:48;21.50;;;7.40;;
69625;SDS011;56847;51.984;5.088;2022-10-16T20:11:28;26.58;;;8.70;;
69625;SDS011;56847;51.984;5.088;2022-10-16T20:13:58;16.50;;;7.18;;
69625;SDS011;56847;51.984;5.088;2022-10-16T20:16:26;16.80;;;8.43;;
69625;SDS011;56847;51.984;5.088;2022-10-16T20:18:54;17.23;;;8.20;;
69625;SDS011;56847;51.984;5.088;2022-10-16T20:21:23;20.80;;;7.18;;
69625;SDS011;56847;51.984;5.088;2022-10-16T20:23:56;26.63;;;8.13;;
69625;SDS011;56847;51.984;5.088;2022-10-16T20:26:28;17.60;;;6.97;;
69625;SDS011;56847;51.984;5.088;2022-10-16T20:28:58;13.27;;;8.02;;
69625;SDS011;56847;51.984;5.088;2022-10-16T20:31:28;21.00;;;8.23;;
69625;SDS011;56847;51.984;5.088;2022-10-16T20:33:58;21.98;;;7.65;;
69625;SDS011;56847;51.984;5.088;2022-10-16T20:36:31;16.92;;;8.10;;
69625;SDS011;56847;51.984;5.088;2022-10-16T20:39:03;15.30;;;8.20;;
69625;SDS011;56847;51.984;5.088;2022-10-16T20:41:32;16.83;;;8.25;;
69625;SDS011;56847;51.984;5.088;2022-10-16T20:44:02;17.03;;;7.80;;
69625;SDS011;56847;51.984;5.088;2022-10-16T20:46:33;14.30;;;6.90;;
69625;SDS011;56847;51.984;5.088;2022-10-16T20:49:02;14.93;;;7.90;;
69625;SDS011;56847;51.984;5.088;2022-10-16T20:51:46;15.18;;;7.53;;
69625;SDS011;56847;51.984;5.088;2022-10-16T20:54:15;15.13;;;7.75;;
69625;SDS011;56847;51.984;5.088;2022-10-16T20:56:42;15.20;;;6.83;;
69625;SDS011;56847;51.984;5.088;2022-10-16T20:59:10;12.05;;;6.20;;
